| time (UTC) | temp C | wind direction | speed KPH | gust KPH | rain 1hr cm | rain 24hr cm | rain mn cm | humidity % | barometer mb |
| 20260504150529 | 13 | 276 | 14.5 | 38.6 | 0.00 | 0.00 | 0.00 | 59 | 1017.6 |
| 20260504140512 | 15 | 326 | 16.1 | 33.8 | 0.00 | 0.00 | 0.00 | 53 | 1016.9 |
| 20260504130516 | 13 | 313 | 11.3 | 16.1 | 0.00 | 0.00 | 0.00 | 56 | 1016.9 |
| 20260504110527 | 8 | 269 | 4.8 | 11.3 | 0.00 | 0.00 | 0.00 | 69 | 1016.5 |
| 20260504100527 | 8 | 273 | 6.4 | 12.9 | 0.00 | 0.00 | 0.00 | 62 | 1016.6 |
| 20260504081502 | 8 | 270 | 9.7 | 12.9 | 0.00 | 0.00 | 0.00 | 60 | 1016.8 |
| 20260504080510 | 8 | 258 | 8.0 | 11.3 | 0.00 | 0.00 | 0.00 | 60 | 1016.8 |
| 20260504050510 | 7 | 258 | 4.8 | 9.7 | 0.00 | 0.00 | 0.00 | 56 | 1016.7 |
| 20260504045502 | 8 | 263 | 6.4 | 9.7 | 0.00 | 0.00 | 0.00 | 51 | 1016.7 |
| 20260504044508 | 9 | 279 | 8.0 | 12.9 | 0.00 | 0.00 | 0.00 | 44 | 1016.6 |
| 20260504043516 | 10 | 279 | 6.4 | 11.3 | 0.00 | 0.00 | 0.00 | 44 | 1016.6 |
| 20260504042503 | 9 | 293 | 8.0 | 11.3 | 0.00 | 0.00 | 0.00 | 45 | 1016.7 |
| 20260504041532 | 9 | 284 | 6.4 | 9.7 | 0.00 | 0.00 | 0.00 | 45 | 1016.6 |
| 20260504040515 | 8 | 283 | 8.0 | 9.7 | 0.00 | 0.00 | 0.00 | 46 | 1016.5 |
| 20260504035505 | 8 | 280 | 6.4 | 9.7 | 0.00 | 0.00 | 0.00 | 46 | 1016.6 |
| 20260504034512 | 8 | 278 | 4.8 | 9.7 | 0.00 | 0.00 | 0.00 | 46 | 1016.6 |
| 20260504033502 | 7 | 270 | 8.0 | 11.3 | 0.00 | 0.00 | 0.00 | 50 | 1016.6 |
| 20260504032510 | 7 | 254 | 3.2 | 6.4 | 0.00 | 0.00 | 0.00 | 51 | 1016.6 |
| 20260504031516 | 7 | 256 | 3.2 | 6.4 | 0.00 | 0.00 | 0.00 | 51 | 1016.5 |
| 20260504030504 | 7 | 256 | 6.4 | 11.3 | 0.00 | 0.00 | 0.00 | 53 | 1016.5 |
| 20260504025512 | 7 | 230 | 6.4 | 11.3 | 0.00 | 0.00 | 0.00 | 53 | 1016.7 |
| 20260504024515 | 8 | 232 | 8.0 | 11.3 | 0.00 | 0.00 | 0.00 | 49 | 1016.7 |
| 20260504023503 | 8 | 242 | 8.0 | 9.7 | 0.00 | 0.00 | 0.00 | 49 | 1016.8 |
| 20260504022527 | 8 | 242 | 6.4 | 8.0 | 0.00 | 0.00 | 0.00 | 48 | 1016.8 |
| 20260504021535 | 9 | 254 | 8.0 | 11.3 | 0.00 | 0.00 | 0.00 | 44 | 1016.6 |
| 20260504020522 | 8 | 281 | 8.0 | 11.3 | 0.00 | 0.00 | 0.00 | 44 | 1016.5 |
| 20260504015515 | 9 | 280 | 4.8 | 12.9 | 0.00 | 0.00 | 0.00 | 44 | 1016.4 |
| 20260504014520 | 10 | 267 | 9.7 | 16.1 | 0.00 | 0.00 | 0.00 | 41 | 1016.4 |
| 20260504013506 | 10 | 275 | 6.4 | 12.9 | 0.00 | 0.00 | 0.00 | 40 | 1016.1 |
| 20260504012516 | 10 | 247 | 4.8 | 8.0 | 0.00 | 0.00 | 0.00 | 41 | 1016.1 |
| 20260504011502 | 11 | 275 | 4.8 | 9.7 | 0.00 | 0.00 | 0.00 | 37 | 1016.0 |
| 20260504010508 | 11 | 281 | 4.8 | 12.9 | 0.00 | 0.00 | 0.00 | 35 | 1015.9 |
| 20260504005515 | 11 | 276 | 8.0 | 12.9 | 0.00 | 0.00 | 0.00 | 36 | 1015.9 |
| 20260504004503 | 11 | 257 | 4.8 | 9.7 | 0.00 | 0.00 | 0.00 | 38 | 1015.7 |
| 20260504003508 | 11 | 269 | 4.8 | 9.7 | 0.00 | 0.00 | 0.00 | 36 | 1015.8 |
| 20260504002514 | 12 | 273 | 4.8 | 20.9 | 0.00 | 0.00 | 0.00 | 34 | 1015.7 |
| 20260504001520 | 12 | 296 | 11.3 | 20.9 | 0.00 | 0.00 | 0.00 | 33 | 1015.8 |
| 20260504000508 | 12 | 275 | 6.4 | 12.9 | 0.00 | 0.00 | 0.00 | 34 | 1015.8 |
| 20260503235536 | 13 | 295 | 6.4 | 11.3 | 0.00 | 0.00 | 0.00 | 34 | 1015.8 |
| 20260503234503 | 13 | 270 | 6.4 | 14.5 | 0.00 | 0.00 | 0.00 | 32 | 1015.8 |
| 20260503233512 | 13 | 292 | 11.3 | 19.3 | 0.00 | 0.00 | 0.00 | 32 | 1015.7 |
| 20260503232537 | 14 | 277 | 6.4 | 17.7 | 0.00 | 0.00 | 0.00 | 32 | 1015.6 |
| 20260503231504 | 14 | 262 | 11.3 | 20.9 | 0.00 | 0.00 | 0.00 | 31 | 1015.5 |
| 20260503230512 | 15 | 261 | 16.1 | 22.5 | 0.00 | 0.00 | 0.00 | 33 | 1015.5 |
| 20260503225539 | 15 | 289 | 11.3 | 19.3 | 0.00 | 0.00 | 0.00 | 31 | 1015.6 |
| 20260503224510 | 15 | 229 | 14.5 | 29.0 | 0.00 | 0.00 | 0.00 | 31 | 1015.6 |
| 20260503223521 | 15 | 284 | 12.9 | 19.3 | 0.00 | 0.00 | 0.00 | 29 | 1015.6 |
| 20260503222507 | 15 | 288 | 6.4 | 17.7 | 0.00 | 0.00 | 0.00 | 30 | 1015.6 |
| 20260503221512 | 15 | 257 | 8.0 | 20.9 | 0.00 | 0.00 | 0.00 | 29 | 1015.6 |
| 20260503220518 | 16 | 259 | 9.7 | 17.7 | 0.00 | 0.00 | 0.00 | 30 | 1015.7 |
| 20260503215506 | 16 | 275 | 8.0 | 14.5 | 0.00 | 0.00 | 0.00 | 29 | 1015.7 |
| 20260503214529 | 16 | 261 | 9.7 | 24.1 | 0.00 | 0.00 | 0.00 | 28 | 1015.8 |
| 20260503213512 | 16 | 244 | 11.3 | 25.7 | 0.00 | 0.00 | 0.00 | 26 | 1015.9 |
| 20260503212517 | 16 | 281 | 8.0 | 19.3 | 0.00 | 0.00 | 0.00 | 33 | 1016.0 |
| 20260503211503 | 16 | 294 | 6.4 | 17.7 | 0.00 | 0.00 | 0.00 | 27 | 1016.1 |
| 20260503210510 | 15 | 327 | 12.9 | 27.4 | 0.00 | 0.00 | 0.00 | 28 | 1016.2 |
| 20260503205517 | 15 | 252 | 4.8 | 20.9 | 0.00 | 0.00 | 0.00 | 28 | 1016.4 |
| 20260503204504 | 15 | 278 | 16.1 | 22.5 | 0.00 | 0.00 | 0.00 | 29 | 1016.5 |
| 20260503203509 | 15 | 283 | 3.2 | 29.0 | 0.00 | 0.00 | 0.00 | 32 | 1016.4 |
| 20260503202515 | 15 | 321 | 8.0 | 19.3 | 0.00 | 0.00 | 0.00 | 33 | 1016.5 |
| 20260503201507 | 15 | 309 | 9.7 | 20.9 | 0.00 | 0.00 | 0.00 | 30 | 1016.7 |
| 20260503200536 | 15 | 324 | 12.9 | 19.3 | 0.00 | 0.00 | 0.00 | 31 | 1016.7 |
| 20260503195514 | 15 | 276 | 12.9 | 19.3 | 0.00 | 0.00 | 0.00 | 39 | 1016.7 |
| 20260503194541 | 15 | 327 | 9.7 | 19.3 | 0.00 | 0.00 | 0.00 | 37 | 1016.9 |
| 20260503193505 | 14 | 338 | 4.8 | 20.9 | 0.00 | 0.00 | 0.00 | 39 | 1017.0 |
| 20260503192513 | 14 | 279 | 9.7 | 20.9 | 0.00 | 0.00 | 0.00 | 36 | 1017.1 |
| 20260503191521 | 14 | 300 | 6.4 | 14.5 | 0.00 | 0.00 | 0.00 | 37 | 1017.2 |
| 20260503190505 | 13 | 262 | 11.3 | 19.3 | 0.00 | 0.00 | 0.00 | 39 | 1017.3 |
| 20260503185511 | 13 | 290 | 9.7 | 20.9 | 0.00 | 0.00 | 0.00 | 34 | 1017.5 |
| 20260503184518 | 13 | 284 | 8.0 | 27.4 | 0.00 | 0.00 | 0.00 | 34 | 1017.5 |
| 20260503183504 | 13 | 246 | 6.4 | 16.1 | 0.00 | 0.00 | 0.00 | 38 | 1017.7 |
| 20260503182509 | 13 | 242 | 9.7 | 25.7 | 0.00 | 0.00 | 0.00 | 35 | 1017.7 |
| 20260503181532 | 13 | 310 | 16.1 | 24.1 | 0.00 | 0.00 | 0.00 | 35 | 1018.0 |
| 20260503180515 | 12 | 291 | 11.3 | 22.5 | 0.00 | 0.00 | 0.00 | 37 | 1018.0 |
| 20260503175506 | 12 | 13 | 8.0 | 27.4 | 0.00 | 0.00 | 0.00 | 37 | 1018.1 |
| 20260503174516 | 12 | 348 | 12.9 | 25.7 | 0.00 | 0.00 | 0.00 | 38 | 1018.3 |
| 20260503173504 | 12 | 248 | 17.7 | 25.7 | 0.00 | 0.00 | 0.00 | 42 | 1018.3 |
| 20260503172532 | 11 | 298 | 11.3 | 17.7 | 0.00 | 0.00 | 0.00 | 42 | 1018.4 |
| 20260503171516 | 11 | 314 | 12.9 | 25.7 | 0.00 | 0.00 | 0.00 | 40 | 1018.5 |
| 20260503170501 | 11 | 290 | 11.3 | 19.3 | 0.00 | 0.00 | 0.00 | 45 | 1018.6 |